Airport View

Enter AWOS ICAO identifier for current METAR.

ex. KFNL

KLAW 210026Z AUTO 13013KT 10SM BKN008 23/22 A2993 RMK AO2 CIG 006V009 T02330222

21 Sep 2019 00:31

Phone: 580-581-1351

Other Area AWOS: KFSI - KDUC - KFDR - KSPS

TAF KLAW 202327Z 2100/2124 16010KT P6SM BKN045 OVC100 TEMPO 2100/2104 4SM TSRA BKN040CB FM211200 17013G17KT P6SM BKN015 BKN045 FM211800 18015KT P6SM BKN050